Time;durP1;ratioP1;P1;durP2;ratioP2;P2;SDS_P1;SDS_P2;PMS_P1;PMS_P2;Temp;Humidity;BMP_temperature;BMP_pressure;BME280_temperature;BME280_humidity;BME280_pressure;Samples;Min_cycle;Max_cycle;Signal;HPM_P1;HPM_P2
2022/09/13 00:00:52;;;;;;;73.63;34.45;;;16.10;99.90;;;;;;5014296;28;20101;-68
2022/09/13 00:03:19;;;;;;;77.35;34.90;;;16.10;99.90;;;;;;5015181;28;20034;-68
2022/09/13 00:05:44;;;;;;;76.25;38.40;;;16.00;99.90;;;;;;5014954;28;20026;-68
2022/09/13 00:08:10;;;;;;;76.97;37.75;;;16.00;99.90;;;;;;5013100;28;20056;-68
2022/09/13 00:10:38;;;;;;;86.18;38.15;;;16.10;99.90;;;;;;5013514;28;20383;-68
2022/09/13 00:13:08;;;;;;;78.28;37.78;;;16.10;99.90;;;;;;5013380;28;20018;-68
2022/09/13 00:15:34;;;;;;;82.45;36.03;;;16.10;99.90;;;;;;5016905;28;20517;-68
2022/09/13 00:18:00;;;;;;;65.10;33.28;;;16.00;99.90;;;;;;5034420;28;20021;-68
2022/09/13 00:20:26;;;;;;;58.78;33.92;;;16.00;99.90;;;;;;5036961;28;20492;-68
2022/09/13 00:22:52;;;;;;;65.13;32.97;;;15.90;99.90;;;;;;5036453;28;20410;-68
2022/09/13 00:25:18;;;;;;;56.03;29.65;;;15.90;99.90;;;;;;5023929;28;20083;-68
2022/09/13 00:27:44;;;;;;;61.92;31.17;;;15.90;99.90;;;;;;5017330;28;20065;-68
2022/09/13 00:30:10;;;;;;;46.63;28.85;;;15.90;99.90;;;;;;5017056;28;20033;-68
2022/09/13 00:32:36;;;;;;;55.40;28.40;;;15.90;99.90;;;;;;5016977;28;20041;-68
2022/09/13 00:35:04;;;;;;;51.20;26.02;;;15.80;99.90;;;;;;5017153;28;20030;-68
2022/09/13 00:37:32;;;;;;;56.78;26.95;;;15.90;99.90;;;;;;5016617;28;20041;-68
2022/09/13 00:39:57;;;;;;;51.33;26.23;;;15.90;99.90;;;;;;5016841;28;20025;-68
2022/09/13 00:42:28;;;;;;;61.05;28.98;;;15.90;99.90;;;;;;5017168;28;20026;-68
2022/09/13 00:45:21;;;;;;;50.63;26.27;;;15.80;99.90;;;;;;5017435;28;20378;-68
2022/09/13 00:47:58;;;;;;;54.45;28.90;;;15.80;99.90;;;;;;5016381;28;20096;-68
2022/09/13 00:50:41;;;;;;;55.45;28.55;;;15.80;99.90;;;;;;5016854;28;20112;-68
2022/09/13 00:53:11;;;;;;;63.03;32.03;;;15.80;99.90;;;;;;5016869;28;20022;-69
2022/09/13 00:55:57;;;;;;;75.43;33.60;;;15.80;99.90;;;;;;5017054;28;20029;-68
2022/09/13 00:58:26;;;;;;;67.20;33.28;;;15.80;99.90;;;;;;5016273;28;20013;-68
2022/09/13 01:00:53;;;;;;;66.07;34.08;;;15.90;99.90;;;;;;5016527;28;20022;-68
2022/09/13 01:03:21;;;;;;;73.90;35.63;;;15.90;99.90;;;;;;5017087;28;20394;-68
2022/09/13 01:05:55;;;;;;;76.95;38.45;;;15.90;99.90;;;;;;5016544;28;20385;-68
2022/09/13 01:08:21;;;;;;;77.50;37.10;;;15.90;99.90;;;;;;5015945;28;20022;-68
2022/09/13 01:10:51;;;;;;;84.85;38.35;;;16.00;99.90;;;;;;5016274;28;20022;-68
2022/09/13 01:13:26;;;;;;;71.57;38.45;;;16.00;99.90;;;;;;5016374;28;20378;-68
2022/09/13 01:15:52;;;;;;;86.15;40.90;;;16.10;99.90;;;;;;5016239;28;20052;-68
2022/09/13 01:18:18;;;;;;;79.13;40.20;;;16.10;99.90;;;;;;5016555;28;20022;-68
2022/09/13 01:21:21;;;;;;;97.70;42.33;;;16.00;99.90;;;;;;5015570;28;20029;-68
2022/09/13 01:23:50;;;;;;;69.32;30.90;;;16.10;99.90;;;;;;5015932;28;20084;-68
2022/09/13 01:26:24;;;;;;;58.47;28.58;;;16.10;99.90;;;;;;5014793;28;20040;-68
2022/09/13 01:29:10;;;;;;;49.38;23.98;;;16.20;99.90;;;;;;5016010;28;20068;-68
2022/09/13 01:31:52;;;;;;;45.95;23.77;;;16.20;99.90;;;;;;5015869;28;20053;-68
2022/09/13 01:34:47;;;;;;;51.08;22.25;;;16.20;99.90;;;;;;5015348;28;20026;-68
2022/09/13 01:37:40;;;;;;;26.92;11.88;;;16.20;99.90;;;;;;5019495;28;20061;-68
2022/09/13 01:40:16;;;;;;;27.92;13.50;;;16.20;99.90;;;;;;5035373;28;20095;-68
2022/09/13 01:42:57;;;;;;;25.17;10.90;;;16.30;99.90;;;;;;5035700;28;20021;-68
2022/09/13 01:45:31;;;;;;;21.17;9.65;;;16.30;99.90;;;;;;5025200;28;20025;-69
2022/09/13 01:47:59;;;;;;;25.73;9.05;;;16.30;99.90;;;;;;5015250;28;20116;-68
2022/09/13 01:50:58;;;;;;;21.42;8.73;;;16.20;99.90;;;;;;5015603;28;20061;-68
2022/09/13 01:54:01;;;;;;;31.02;8.50;;;16.20;99.90;;;;;;5015665;28;20025;-69
2022/09/13 01:56:55;;;;;;;19.58;7.43;;;16.20;99.90;;;;;;5015963;28;20102;-68
2022/09/13 01:59:43;;;;;;;17.02;6.13;;;16.30;99.90;;;;;;5014989;28;20360;-68
2022/09/13 02:02:50;;;;;;;22.40;6.47;;;16.30;99.90;;;;;;5015720;28;20022;-68
2022/09/13 02:05:15;;;;;;;25.65;8.38;;;16.40;99.90;;;;;;5004908;28;20045;-68
2022/09/13 02:07:44;;;;;;;19.70;6.95;;;16.50;99.90;;;;;;5015367;28;20022;-68
2022/09/13 02:10:35;;;;;;;23.75;7.75;;;16.50;99.90;;;;;;5014652;28;20060;-68
2022/09/13 02:13:03;;;;;;;24.25;7.50;;;16.40;99.90;;;;;;5012414;28;20026;-68
2022/09/13 02:15:45;;;;;;;32.55;9.23;;;16.40;99.90;;;;;;5016022;28;20076;-69
2022/09/13 02:18:23;;;;;;;34.88;7.90;;;16.40;99.90;;;;;;5035103;28;20059;-68
2022/09/13 02:20:52;;;;;;;17.45;7.32;;;16.40;99.90;;;;;;5035339;28;20014;-68
2022/09/13 02:23:27;;;;;;;24.83;8.15;;;16.40;99.90;;;;;;5034223;28;20443;-69
2022/09/13 02:25:54;;;;;;;24.65;7.68;;;16.40;99.90;;;;;;5034741;28;20091;-68
2022/09/13 02:28:31;;;;;;;27.10;6.80;;;16.40;99.90;;;;;;5024229;28;20025;-68
2022/09/13 02:30:58;;;;;;;17.85;6.22;;;16.40;99.90;;;;;;5016428;28;20022;-68
2022/09/13 02:33:32;;;;;;;30.85;5.97;;;16.40;99.90;;;;;;5015369;28;20030;-68
2022/09/13 02:36:03;;;;;;;18.02;5.45;;;16.30;99.90;;;;;;5024012;28;20405;-69
2022/09/13 02:38:58;;;;;;;26.75;4.88;;;16.30;99.90;;;;;;5034156;28;20022;-68
2022/09/13 02:41:44;;;;;;;29.40;5.05;;;16.30;99.90;;;;;;5074979;23;20049;-67
2022/09/13 02:44:16;;;;;;;27.60;5.13;;;16.40;99.90;;;;;;5074144;28;20024;-67
2022/09/13 02:46:44;;;;;;;40.03;4.90;;;16.40;99.90;;;;;;5074245;28;20025;-67
2022/09/13 02:49:15;;;;;;;35.10;5.10;;;16.30;99.90;;;;;;5074334;28;20082;-67
2022/09/13 02:52:02;;;;;;;31.27;5.25;;;16.30;99.90;;;;;;5058617;28;20044;-67
2022/09/13 02:54:42;;;;;;;28.33;3.78;;;16.30;99.90;;;;;;5034021;28;20034;-67
2022/09/13 02:57:19;;;;;;;23.80;3.45;;;16.10;99.90;;;;;;5033716;28;20144;-67
2022/09/13 02:59:46;;;;;;;34.40;3.22;;;16.00;99.90;;;;;;5034272;28;20025;-67
2022/09/13 03:02:15;;;;;;;21.33;4.50;;;15.90;99.90;;;;;;5034282;28;20030;-66
2022/09/13 03:04:41;;;;;;;21.58;3.75;;;15.80;99.90;;;;;;5034136;28;20060;-66
2022/09/13 03:07:11;;;;;;;27.38;2.88;;;15.70;99.90;;;;;;5034180;28;20381;-66
2022/09/13 03:09:44;;;;;;;24.40;3.03;;;15.60;99.90;;;;;;5034277;28;20029;-66
2022/09/13 03:12:16;;;;;;;15.32;2.33;;;15.50;99.90;;;;;;5033349;28;20037;-66
2022/09/13 03:15:00;;;;;;;35.00;4.00;;;15.40;99.90;;;;;;5033805;28;20025;-67
2022/09/13 03:17:38;;;;;;;27.23;2.63;;;15.30;99.90;;;;;;5034305;28;20022;-67
2022/09/13 03:20:20;;;;;;;24.70;2.45;;;15.20;99.90;;;;;;5033115;28;20025;-67
2022/09/13 03:23:08;;;;;;;26.83;2.58;;;15.20;99.90;;;;;;5033680;28;20031;-67
2022/09/13 03:25:51;;;;;;;19.38;2.78;;;15.00;99.90;;;;;;5033699;28;20022;-67
2022/09/13 03:28:33;;;;;;;22.85;3.25;;;15.00;99.90;;;;;;5033755;28;20120;-67
2022/09/13 03:31:07;;;;;;;13.55;2.63;;;14.90;99.90;;;;;;5033617;28;20056;-67
2022/09/13 03:33:56;;;;;;;15.93;1.98;;;14.80;99.90;;;;;;5033090;28;20037;-67
2022/09/13 03:36:41;;;;;;;25.55;4.40;;;14.80;99.90;;;;;;5033508;28;20583;-67
2022/09/13 03:39:35;;;;;;;24.08;3.40;;;14.70;99.90;;;;;;5033616;28;20392;-67
2022/09/13 03:42:09;;;;;;;22.55;2.53;;;14.60;99.90;;;;;;5032014;28;20057;-67
2022/09/13 03:44:38;;;;;;;25.02;3.28;;;14.50;99.90;;;;;;5033704;28;20040;-66
2022/09/13 03:47:06;;;;;;;9.00;1.85;;;14.60;99.90;;;;;;5032817;28;20519;-66
2022/09/13 03:49:33;;;;;;;25.63;2.03;;;14.50;99.90;;;;;;5033221;28;20030;-66
2022/09/13 03:51:59;;;;;;;11.05;2.20;;;14.50;99.90;;;;;;5033485;28;20132;-67
2022/09/13 03:54:31;;;;;;;19.02;2.63;;;14.60;99.90;;;;;;5033489;28;20033;-66
2022/09/13 03:57:16;;;;;;;12.77;2.60;;;14.70;99.90;;;;;;5032883;28;20018;-67
2022/09/13 03:59:46;;;;;;;15.45;2.03;;;14.70;99.90;;;;;;5033498;28;20040;-67
2022/09/13 04:02:13;;;;;;;11.20;2.53;;;14.60;99.90;;;;;;5033220;28;20036;-66
2022/09/13 04:04:42;;;;;;;22.52;2.83;;;14.50;99.90;;;;;;5033222;28;20450;-66
2022/09/13 04:07:10;;;;;;;29.63;3.83;;;14.50;99.90;;;;;;5032600;28;20452;-67
2022/09/13 04:09:36;;;;;;;24.98;2.88;;;14.40;99.90;;;;;;5033118;28;20033;-66
2022/09/13 04:12:02;;;;;;;11.05;2.20;;;14.30;99.90;;;;;;5033059;28;20037;-66
2022/09/13 04:14:28;;;;;;;22.70;2.45;;;14.40;99.90;;;;;;5033115;28;20029;-67
2022/09/13 04:16:55;;;;;;;26.75;2.78;;;14.40;99.90;;;;;;5033225;28;20102;-66
2022/09/13 04:19:23;;;;;;;25.98;3.42;;;14.30;99.90;;;;;;5032768;28;20022;-66
2022/09/13 04:21:50;;;;;;;19.08;2.15;;;14.30;99.90;;;;;;5033200;28;20021;-66
2022/09/13 04:24:17;;;;;;;21.90;2.65;;;14.20;99.90;;;;;;5032984;28;20446;-66
2022/09/13 04:26:43;;;;;;;15.77;2.78;;;14.10;99.90;;;;;;5032727;28;20433;-67
2022/09/13 04:29:09;;;;;;;16.00;2.55;;;14.00;99.90;;;;;;5033305;28;20036;-66
2022/09/13 04:31:34;;;;;;;25.48;2.75;;;13.80;99.90;;;;;;5033109;28;20033;-67
2022/09/13 04:34:00;;;;;;;18.60;2.70;;;13.80;99.90;;;;;;5032931;28;20384;-67
2022/09/13 04:36:27;;;;;;;18.55;2.50;;;13.70;99.90;;;;;;5032932;28;20026;-67
2022/09/13 04:38:52;;;;;;;19.35;3.03;;;13.50;99.90;;;;;;5033176;28;20029;-67
2022/09/13 04:41:18;;;;;;;16.92;2.42;;;13.50;99.90;;;;;;5032177;28;20527;-67
2022/09/13 04:43:49;;;;;;;38.42;2.63;;;13.50;99.90;;;;;;5032828;28;20029;-67
2022/09/13 04:46:14;;;;;;;24.77;3.65;;;13.40;99.90;;;;;;5033194;28;20057;-67
2022/09/13 04:48:40;;;;;;;27.27;3.92;;;13.40;99.90;;;;;;5032842;28;20135;-67
2022/09/13 04:51:05;;;;;;;17.85;2.47;;;13.30;99.90;;;;;;5032285;28;20052;-67
2022/09/13 04:53:31;;;;;;;19.92;2.28;;;13.30;99.90;;;;;;5033271;28;20408;-67
2022/09/13 04:56:02;;;;;;;14.35;2.05;;;13.30;99.90;;;;;;5032857;28;20030;-67
2022/09/13 04:58:27;;;;;;;17.45;1.92;;;13.10;99.90;;;;;;5032766;28;20040;-67
2022/09/13 05:00:55;;;;;;;13.57;2.47;;;13.10;99.90;;;;;;5034673;28;20018;-67
2022/09/13 05:03:22;;;;;;;19.05;2.70;;;13.00;99.90;;;;;;5035901;28;20029;-67
2022/09/13 05:05:47;;;;;;;26.08;2.58;;;12.90;99.90;;;;;;5036458;28;20032;-67
2022/09/13 05:08:13;;;;;;;24.13;2.72;;;12.90;99.90;;;;;;5036357;28;20100;-66
2022/09/13 05:10:38;;;;;;;25.25;2.22;;;12.90;99.90;;;;;;5036267;28;20535;-66
2022/09/13 05:13:04;;;;;;;17.83;1.73;;;13.00;99.90;;;;;;5036379;28;20105;-67
2022/09/13 05:15:29;;;;;;;23.40;2.83;;;13.00;99.90;;;;;;5036187;28;20037;-66
2022/09/13 05:17:55;;;;;;;18.17;2.28;;;13.00;99.90;;;;;;5035401;28;20025;-67
2022/09/13 05:20:20;;;;;;;19.02;3.20;;;13.00;99.90;;;;;;5036066;28;20501;-67
2022/09/13 05:22:46;;;;;;;38.88;4.88;;;13.00;99.90;;;;;;5035890;28;20025;-66
2022/09/13 05:25:12;;;;;;;19.63;2.50;;;13.00;99.90;;;;;;5036077;28;20405;-66
2022/09/13 05:27:38;;;;;;;25.98;2.35;;;13.00;99.90;;;;;;5036022;28;20025;-66
2022/09/13 05:30:04;;;;;;;19.08;2.70;;;13.00;99.90;;;;;;5035134;28;20025;-67
2022/09/13 05:32:31;;;;;;;24.08;2.65;;;13.00;99.90;;;;;;5035945;28;20535;-67
2022/09/13 05:34:56;;;;;;;30.85;2.70;;;13.00;99.90;;;;;;5035783;28;20039;-66
2022/09/13 05:37:22;;;;;;;30.02;3.03;;;13.10;99.90;;;;;;5035674;28;20469;-67
2022/09/13 05:39:47;;;;;;;23.27;3.92;;;13.10;99.90;;;;;;5036019;28;20025;-68
2022/09/13 05:42:13;;;;;;;37.10;4.13;;;13.20;99.90;;;;;;5034735;28;20037;-68
2022/09/13 05:44:38;;;;;;;26.10;3.65;;;13.20;99.90;;;;;;5035448;28;20026;-68
2022/09/13 05:47:04;;;;;;;13.35;2.15;;;13.40;99.90;;;;;;5035544;28;20025;-68
2022/09/13 05:49:30;;;;;;;22.40;3.05;;;13.50;99.90;;;;;;5035406;28;20388;-68
2022/09/13 05:51:55;;;;;;;33.38;5.18;;;13.60;99.90;;;;;;5035512;28;20031;-68
2022/09/13 05:54:21;;;;;;;23.48;2.47;;;13.70;99.90;;;;;;5035295;28;20036;-68
2022/09/13 05:56:46;;;;;;;28.33;2.25;;;13.80;99.90;;;;;;5034691;28;20025;-67
2022/09/13 05:59:16;;;;;;;15.20;2.47;;;13.80;99.90;;;;;;5035401;28;20022;-68
2022/09/13 06:01:41;;;;;;;16.95;2.80;;;13.70;99.90;;;;;;5035328;28;20116;-68
2022/09/13 06:04:07;;;;;;;21.40;2.13;;;13.70;99.90;;;;;;5035151;28;20072;-68
2022/09/13 06:06:34;;;;;;;15.50;2.90;;;13.60;99.90;;;;;;5035573;28;20034;-68
2022/09/13 06:08:59;;;;;;;18.75;2.03;;;13.60;99.90;;;;;;5034364;28;20397;-68
2022/09/13 06:11:25;;;;;;;16.25;2.38;;;13.60;99.90;;;;;;5034539;28;20025;-68
2022/09/13 06:13:52;;;;;;;13.85;2.38;;;13.60;99.90;;;;;;5034861;28;20389;-68
2022/09/13 06:16:18;;;;;;;15.52;2.00;;;13.60;99.90;;;;;;5035144;28;20076;-68
2022/09/13 06:18:44;;;;;;;13.85;2.05;;;13.70;99.90;;;;;;5034753;28;20025;-68
2022/09/13 06:21:16;;;;;;;17.08;1.98;;;13.70;99.90;;;;;;5034587;28;20053;-67
2022/09/13 06:23:44;;;;;;;21.08;2.72;;;13.80;99.90;;;;;;5035019;28;20136;-68
2022/09/13 06:26:12;;;;;;;16.48;2.00;;;13.80;99.90;;;;;;5035179;28;20037;-68
2022/09/13 06:28:38;;;;;;;9.00;1.77;;;13.90;99.90;;;;;;5034659;28;20033;-68
2022/09/13 06:31:13;;;;;;;15.85;2.67;;;13.90;99.90;;;;;;5034171;28;20037;-68
2022/09/13 06:33:40;;;;;;;11.60;1.92;;;13.80;99.90;;;;;;5034779;28;20072;-68
2022/09/13 06:36:09;;;;;;;18.10;2.25;;;13.80;99.90;;;;;;5034733;28;20083;-68
2022/09/13 06:38:35;;;;;;;15.55;2.38;;;13.80;99.90;;;;;;5034183;28;20029;-68
2022/09/13 06:41:06;;;;;;;10.90;2.13;;;13.80;99.90;;;;;;5034147;28;20029;-68
2022/09/13 06:43:33;;;;;;;16.30;2.00;;;13.80;99.90;;;;;;5034653;28;20066;-68
2022/09/13 06:46:06;;;;;;;13.98;2.13;;;14.00;99.90;;;;;;5034505;28;20071;-68
2022/09/13 06:48:33;;;;;;;;;;;14.10;99.90;;;;;;5034700;28;20115;-68
2022/09/13 06:51:01;;;;;;;16.13;2.42;;;14.20;99.90;;;;;;5034282;28;19951;-68
2022/09/13 06:53:27;;;;;;;16.65;3.22;;;14.30;99.90;;;;;;5033526;28;20021;-68
2022/09/13 06:56:05;;;;;;;15.75;2.20;;;14.40;99.90;;;;;;5034112;28;20017;-68
2022/09/13 06:58:33;;;;;;;28.75;2.70;;;14.50;99.90;;;;;;5034079;28;20055;-68
2022/09/13 07:01:31;;;;;;;20.40;2.22;;;14.60;99.90;;;;;;5033960;28;20061;-68
2022/09/13 07:03:59;;;;;;;15.63;2.08;;;14.60;99.90;;;;;;5033846;28;20030;-68
2022/09/13 07:06:30;;;;;;;19.20;2.60;;;14.80;99.90;;;;;;5033485;28;20029;-68
2022/09/13 07:08:58;;;;;;;22.00;2.55;;;14.80;99.90;;;;;;5034213;28;20028;-68
2022/09/13 07:11:25;;;;;;;20.05;2.75;;;14.90;99.90;;;;;;5033921;28;20029;-68
2022/09/13 07:13:56;;;;;;;15.07;2.38;;;14.90;99.90;;;;;;5033720;28;20389;-68
2022/09/13 07:16:24;;;;;;;14.65;2.30;;;14.80;99.90;;;;;;5033502;28;20030;-68
2022/09/13 07:18:55;;;;;;;19.73;2.78;;;14.90;99.90;;;;;;5033737;28;20044;-68
2022/09/13 07:21:22;;;;;;;15.95;2.92;;;14.80;99.90;;;;;;5033895;28;20107;-68
2022/09/13 07:23:48;;;;;;;16.17;2.20;;;14.80;99.90;;;;;;5032793;28;20029;-68
2022/09/13 07:26:14;;;;;;;19.30;3.33;;;14.90;99.90;;;;;;5033656;28;20113;-68
2022/09/13 07:28:42;;;;;;;24.20;2.85;;;15.00;99.90;;;;;;5033285;28;20083;-67
2022/09/13 07:31:09;;;;;;;12.18;2.88;;;15.20;99.90;;;;;;5033523;28;20470;-67
2022/09/13 07:33:35;;;;;;;14.77;2.08;;;15.30;99.90;;;;;;5033944;28;20108;-67
2022/09/13 07:36:05;;;;;;;17.38;2.15;;;15.50;99.90;;;;;;5033738;28;20025;-67
2022/09/13 07:38:35;;;;;;;13.15;2.03;;;15.70;99.90;;;;;;5033470;28;20044;-67
2022/09/13 07:41:01;;;;;;;15.73;2.45;;;16.00;99.90;;;;;;5033512;28;20104;-67
2022/09/13 07:43:27;;;;;;;14.43;1.90;;;16.20;99.90;;;;;;5032897;28;20032;-68
2022/09/13 07:46:08;;;;;;;15.10;2.05;;;16.30;99.90;;;;;;5033350;28;20075;-67
2022/09/13 07:48:35;;;;;;;11.70;1.95;;;16.60;99.90;;;;;;5033312;28;20025;-67
2022/09/13 07:51:07;;;;;;;17.17;2.53;;;16.60;99.90;;;;;;5033220;28;20079;-67
2022/09/13 07:53:35;;;;;;;16.92;2.88;;;16.60;99.90;;;;;;5033685;28;20034;-67
2022/09/13 07:56:08;;;;;;;10.45;1.55;;;16.70;99.90;;;;;;5032668;28;20021;-67
2022/09/13 07:58:36;;;;;;;24.02;2.65;;;16.80;99.90;;;;;;5033554;28;20049;-66
2022/09/13 08:01:13;;;;;;;11.73;2.67;;;16.70;99.90;;;;;;5033145;28;20064;-67
2022/09/13 08:03:39;;;;;;;35.65;4.63;;;17.00;99.90;;;;;;5032857;28;20059;-66
2022/09/13 08:06:06;;;;;;;12.05;1.63;;;17.00;99.90;;;;;;5033163;28;20030;-66
2022/09/13 08:08:33;;;;;;;15.77;2.65;;;16.90;99.90;;;;;;5033446;28;20034;-66
2022/09/13 08:11:00;;;;;;;7.72;1.92;;;16.90;99.90;;;;;;5033013;28;20032;-67
2022/09/13 08:13:27;;;;;;;12.10;2.28;;;16.90;99.90;;;;;;5033305;28;20029;-66
2022/09/13 08:15:53;;;;;;;12.73;1.55;;;17.00;99.90;;;;;;5032521;28;20032;-67
2022/09/13 08:18:19;;;;;;;17.90;3.13;;;17.10;99.90;;;;;;5040470;28;20036;-67
2022/09/13 08:20:45;;;;;;;13.77;1.95;;;17.30;99.90;;;;;;5052929;28;20025;-67
2022/09/13 08:23:11;;;;;;;13.85;1.92;;;17.50;99.90;;;;;;5051169;28;20428;-68
2022/09/13 08:25:37;;;;;;;12.93;1.65;;;17.70;99.90;;;;;;5052380;28;20024;-67
2022/09/13 08:28:14;;;;;;;17.52;2.60;;;17.70;99.90;;;;;;5040054;28;20445;-67
2022/09/13 08:30:42;;;;;;;18.55;2.17;;;17.70;99.90;;;;;;5037102;28;20032;-68
2022/09/13 08:33:08;;;;;;;8.68;1.83;;;17.80;99.90;;;;;;5042697;28;20534;-68
2022/09/13 08:35:34;;;;;;;9.68;2.00;;;17.90;99.90;;;;;;5054297;28;20078;-68
2022/09/13 08:38:00;;;;;;;16.23;2.28;;;18.00;99.90;;;;;;5056891;28;20021;-67
2022/09/13 08:40:37;;;;;;;18.88;3.10;;;17.90;99.90;;;;;;5091999;22;20034;-67
2022/09/13 08:43:10;;;;;;;17.13;2.50;;;17.80;99.90;;;;;;5057296;28;20117;-69
2022/09/13 08:45:36;;;;;;;;;;;17.40;99.90;;;;;;5057694;28;20071;-69
2022/09/13 08:48:10;;;;;;;24.23;3.00;;;17.20;99.90;;;;;;5056825;28;19909;-69
2022/09/13 08:50:38;;;;;;;19.77;3.00;;;17.20;99.90;;;;;;5052107;28;20448;-69
2022/09/13 08:53:28;;;;;;;21.08;2.97;;;17.40;99.90;;;;;;5025476;28;20017;-69
2022/09/13 08:55:53;;;;;;;22.45;2.35;;;17.60;99.90;;;;;;5024212;28;20041;-69
2022/09/13 08:58:33;;;;;;;20.30;2.90;;;17.80;99.90;;;;;;5037081;28;20055;-69
2022/09/13 09:01:07;;;;;;;18.48;2.63;;;18.00;99.90;;;;;;5036986;28;20021;-69
2022/09/13 09:03:40;;;;;;;24.02;2.42;;;18.30;99.90;;;;;;5036934;28;20026;-69
2022/09/13 09:06:15;;;;;;;13.10;2.30;;;18.60;99.90;;;;;;5018954;28;20029;-69
2022/09/13 09:08:45;;;;;;;16.95;2.40;;;18.60;99.90;;;;;;5016971;28;20032;-68
2022/09/13 09:11:25;;;;;;;14.57;2.13;;;18.70;99.90;;;;;;5016815;28;20026;-68
2022/09/13 09:13:58;;;;;;;15.25;2.38;;;18.50;99.90;;;;;;5016872;28;20030;-68
2022/09/13 09:16:46;;;;;;;10.77;1.73;;;18.40;99.90;;;;;;5016272;28;20482;-68
2022/09/13 09:19:39;;;;;;;14.55;2.10;;;18.40;99.90;;;;;;5016637;28;20466;-68
2022/09/13 09:22:16;;;;;;;11.35;1.40;;;18.40;99.90;;;;;;5016632;28;20022;-68
2022/09/13 09:24:48;;;;;;;10.23;1.98;;;18.40;99.90;;;;;;5016644;28;20053;-68
2022/09/13 09:27:17;;;;;;;16.15;1.92;;;18.50;99.90;;;;;;5016658;28;20021;-68
2022/09/13 09:29:45;;;;;;;14.02;2.47;;;18.40;99.90;;;;;;5015684;28;20026;-68
2022/09/13 09:32:48;;;;;;;14.88;2.53;;;18.50;99.90;;;;;;5016470;28;20466;-68
2022/09/13 09:35:42;;;;;;;13.43;1.55;;;18.70;99.90;;;;;;5016053;28;20045;-69
2022/09/13 09:38:35;;;;;;;27.52;3.33;;;18.90;99.90;;;;;;5015911;28;20509;-68
2022/09/13 09:41:21;;;;;;;17.70;2.15;;;18.80;99.90;;;;;;5032202;28;20038;-69
2022/09/13 09:43:51;;;;;;;18.98;2.25;;;18.80;99.90;;;;;;5035882;28;20069;-68
2022/09/13 09:46:23;;;;;;;15.63;1.90;;;18.60;99.90;;;;;;5034854;28;20026;-68
2022/09/13 09:48:54;;;;;;;19.80;4.05;;;18.30;99.90;;;;;;5021529;28;20478;-68
2022/09/13 09:51:22;;;;;;;12.05;2.22;;;18.20;99.90;;;;;;5015929;28;20025;-68
2022/09/13 09:53:54;;;;;;;12.40;1.95;;;18.10;99.90;;;;;;5015759;28;20029;-68
2022/09/13 09:56:22;;;;;;;8.40;1.90;;;18.00;99.90;;;;;;5015806;28;20530;-68
2022/09/13 09:58:48;;;;;;;19.17;2.15;;;17.90;99.90;;;;;;5039779;28;20458;-68
2022/09/13 10:01:32;;;;;;;11.85;2.17;;;17.80;99.90;;;;;;5035260;28;20040;-67
2022/09/13 10:04:19;;;;;;;21.75;3.13;;;17.60;99.90;;;;;;5035657;28;20362;-67
2022/09/13 10:06:45;;;;;;;14.07;2.70;;;17.30;99.90;;;;;;5035907;28;20021;-66
2022/09/13 10:09:18;;;;;;;23.67;3.00;;;16.80;99.90;;;;;;5018158;28;20040;-67
2022/09/13 10:11:58;;;;;;;22.65;3.47;;;16.50;99.90;;;;;;5015675;28;20022;-67
2022/09/13 10:14:41;;;;;;;12.98;2.40;;;16.40;99.90;;;;;;5015617;28;20176;-67
2022/09/13 10:17:22;;;;;;;21.20;2.97;;;16.50;99.90;;;;;;5015022;28;20577;-67
2022/09/13 10:19:53;;;;;;;15.95;2.67;;;16.60;99.90;;;;;;5021938;28;20029;-67
2022/09/13 10:22:19;;;;;;;25.00;2.90;;;16.80;99.90;;;;;;5023909;28;20124;-67
2022/09/13 10:24:45;;;;;;;15.98;2.80;;;17.00;99.90;;;;;;5026617;28;20029;-67
2022/09/13 10:27:24;;;;;;;23.63;3.45;;;17.30;99.90;;;;;;5023735;28;20108;-67
2022/09/13 10:29:54;;;;;;;19.70;2.78;;;17.40;99.90;;;;;;5031443;28;20032;-67
2022/09/13 10:32:20;;;;;;;24.30;3.53;;;17.70;99.90;;;;;;5025747;28;20018;-67
2022/09/13 10:34:48;;;;;;;24.05;3.40;;;17.50;99.90;;;;;;5022704;28;20109;-67
2022/09/13 10:37:20;;;;;;;25.73;3.33;;;17.30;99.90;;;;;;5029773;28;20060;-67
2022/09/13 10:39:58;;;;;;;21.77;3.35;;;17.00;99.90;;;;;;5017579;28;20045;-67
2022/09/13 10:42:29;;;;;;;23.20;3.45;;;17.00;99.90;;;;;;5022569;28;20040;-67
2022/09/13 10:45:05;;;;;;;15.82;2.80;;;17.20;99.90;;;;;;5020372;28;20448;-67
2022/09/13 10:47:46;;;;;;;19.98;2.70;;;17.50;99.90;;;;;;5022025;28;20374;-67
2022/09/13 10:50:17;;;;;;;22.40;3.17;;;18.00;99.90;;;;;;5025795;28;20022;-67
2022/09/13 10:52:47;;;;;;;15.48;1.85;;;18.60;99.90;;;;;;5027690;28;20032;-67
2022/09/13 10:55:19;;;;;;;12.95;2.40;;;19.00;99.90;;;;;;5029432;28;20120;-67
2022/09/13 10:57:46;;;;;;;23.50;3.47;;;18.90;99.90;;;;;;5022988;28;20025;-68
2022/09/13 11:00:16;;;;;;;12.68;2.03;;;18.60;99.90;;;;;;5030083;28;20033;-68
2022/09/13 11:03:24;;;;;;;18.48;3.40;;;18.30;99.90;;;;;;5025586;28;20046;-68
2022/09/13 11:05:55;;;;;;;16.27;2.47;;;18.40;99.90;;;;;;5028501;28;20049;-68
2022/09/13 11:08:30;;;;;;;16.13;2.97;;;18.30;99.90;;;;;;5025732;28;20104;-68
2022/09/13 11:11:07;;;;;;;19.55;2.53;;;18.20;99.90;;;;;;5018630;28;20025;-67
2022/09/13 11:13:55;;;;;;;11.60;1.90;;;18.20;99.90;;;;;;5020844;28;20416;-68
2022/09/13 11:16:51;;;;;;;15.85;2.08;;;18.80;99.90;;;;;;5020162;28;20029;-68
2022/09/13 11:19:33;;;;;;;18.42;3.13;;;19.10;99.90;;;;;;5017963;28;20065;-67
2022/09/13 11:22:43;;;;;;;14.07;2.47;;;19.50;99.90;;;;;;5020970;28;20022;-68
2022/09/13 11:25:33;;;;;;;13.70;2.13;;;19.70;99.90;;;;;;5016581;28;20034;-68
2022/09/13 11:27:59;;;;;;;7.55;1.50;;;19.40;99.90;;;;;;5025785;28;20094;-68
2022/09/13 11:30:27;;;;;;;17.02;2.50;;;19.00;99.90;;;;;;5024198;28;20477;-68
2022/09/13 11:33:19;;;;;;;21.65;2.90;;;18.70;99.90;;;;;;5022893;28;20046;-68
2022/09/13 11:36:02;;;;;;;17.75;2.50;;;18.70;99.90;;;;;;5042237;28;20029;-68
2022/09/13 11:38:45;;;;;;;15.18;3.28;;;18.70;99.90;;;;;;5023088;28;20481;-68
2022/09/13 11:41:27;;;;;;;15.93;2.55;;;18.90;99.90;;;;;;5025254;28;20037;-69
2022/09/13 11:43:52;;;;;;;13.95;2.15;;;19.50;99.90;;;;;;5027367;28;20021;-67
2022/09/13 11:46:38;;;;;;;12.25;2.78;;;20.20;99.90;;;;;;5047951;28;20048;-67
2022/09/13 11:49:48;;;;;;;19.35;2.30;;;20.50;99.90;;;;;;5033325;28;20358;-68
2022/09/13 11:52:33;;;;;;;20.02;2.33;;;19.90;99.90;;;;;;5033045;28;20045;-68
2022/09/13 11:55:10;;;;;;;23.58;3.22;;;19.50;99.90;;;;;;5034168;28;20472;-68
2022/09/13 11:57:41;;;;;;;15.30;1.95;;;19.30;99.90;;;;;;5033813;28;20488;-68
2022/09/13 12:00:17;;;;;;;14.02;3.25;;;19.00;99.90;;;;;;5031793;28;20103;-68
2022/09/13 12:03:09;;;;;;;15.23;2.10;;;18.80;99.90;;;;;;5033803;28;20018;-68
2022/09/13 12:05:40;;;;;;;8.73;1.90;;;18.70;99.90;;;;;;5032750;28;20040;-68
2022/09/13 12:08:24;;;;;;;12.32;2.13;;;18.80;99.90;;;;;;5033117;28;20028;-68
2022/09/13 12:10:58;;;;;;;15.30;2.03;;;18.60;99.90;;;;;;5035785;28;20107;-67
2022/09/13 12:13:30;;;;;;;18.50;2.58;;;18.60;99.90;;;;;;5037597;28;20045;-67
2022/09/13 12:16:08;;;;;;;10.80;2.35;;;18.60;99.90;;;;;;5037542;28;20065;-67
2022/09/13 12:18:41;;;;;;;19.38;2.85;;;18.70;99.90;;;;;;5036940;28;20021;-68
2022/09/13 12:21:11;;;;;;;11.93;2.07;;;18.80;99.90;;;;;;5037440;28;20045;-67
2022/09/13 12:24:01;;;;;;;12.60;2.85;;;18.70;99.90;;;;;;5037266;28;20265;-67
2022/09/13 12:26:36;;;;;;;16.67;2.97;;;18.30;99.90;;;;;;5037346;28;20017;-67
2022/09/13 12:29:16;;;;;;;26.25;2.38;;;18.30;99.90;;;;;;5036863;28;20049;-67
2022/09/13 12:31:42;;;;;;;12.63;2.88;;;18.50;99.90;;;;;;5037477;28;20028;-67
2022/09/13 12:34:18;;;;;;;17.77;3.40;;;18.80;99.90;;;;;;5037016;28;20029;-67
2022/09/13 12:37:07;;;;;;;15.43;2.20;;;18.60;99.90;;;;;;5037193;28;20026;-68
2022/09/13 12:39:40;;;;;;;10.23;1.52;;;18.60;99.90;;;;;;5036759;28;20020;-67
2022/09/13 12:42:47;;;;;;;6.53;1.60;;;18.50;99.90;;;;;;5036865;28;20025;-67
2022/09/13 12:45:22;;;;;;;15.05;3.55;;;18.60;99.90;;;;;;5037076;28;20486;-68
2022/09/13 12:48:16;;;;;;;17.83;1.90;;;18.60;99.90;;;;;;5037129;28;20022;-67
2022/09/13 12:51:00;;;;;;;10.18;1.35;;;18.70;99.90;;;;;;5036288;28;20040;-67
2022/09/13 12:54:02;;;;;;;16.23;2.45;;;18.70;99.90;;;;;;5037013;28;20056;-67
2022/09/13 12:56:57;;;;;;;12.90;2.47;;;18.80;99.90;;;;;;5036637;28;20481;-67
2022/09/13 12:59:38;;;;;;;17.27;3.10;;;18.80;99.90;;;;;;5037288;28;20025;-67
2022/09/13 13:02:28;;;;;;;14.63;2.25;;;18.80;99.90;;;;;;5036981;28;20014;-67
2022/09/13 13:04:59;;;;;;;14.35;1.88;;;18.80;99.90;;;;;;5036728;28;20026;-67
2022/09/13 13:07:27;;;;;;;21.88;2.63;;;18.40;99.90;;;;;;5036754;28;20033;-67